sensor_id;sensor_type;location;lat;lon;timestamp;pressure;altitude;pressure_sealevel;temperature;humidity
75247;BME280;63844;50.042;19.224;2022-12-10T00:01:05;97682.05;;;0.61;88.35
75247;BME280;63844;50.042;19.224;2022-12-10T00:03:33;97684.92;;;0.62;88.48
75247;BME280;63844;50.042;19.224;2022-12-10T00:06:03;97682.70;;;0.64;88.45
75247;BME280;63844;50.042;19.224;2022-12-10T00:08:30;97688.06;;;0.66;88.22
75247;BME280;63844;50.042;19.224;2022-12-10T00:10:57;97686.91;;;0.68;88.16
75247;BME280;63844;50.042;19.224;2022-12-10T00:13:23;97683.83;;;0.67;87.80
75247;BME280;63844;50.042;19.224;2022-12-10T00:15:50;97684.25;;;0.65;87.75
75247;BME280;63844;50.042;19.224;2022-12-10T00:18:16;97685.45;;;0.66;88.25
75247;BME280;63844;50.042;19.224;2022-12-10T00:20:42;97681.40;;;0.67;87.88
75247;BME280;63844;50.042;19.224;2022-12-10T00:23:09;97675.67;;;0.66;87.36
75247;BME280;63844;50.042;19.224;2022-12-10T00:25:35;97681.61;;;0.62;88.05
75247;BME280;63844;50.042;19.224;2022-12-10T00:28:01;97681.27;;;0.65;87.63
75247;BME280;63844;50.042;19.224;2022-12-10T00:30:28;97682.59;;;0.67;88.58
75247;BME280;63844;50.042;19.224;2022-12-10T00:32:55;97678.32;;;0.70;88.27
75247;BME280;63844;50.042;19.224;2022-12-10T00:35:21;97677.95;;;0.74;88.08
75247;BME280;63844;50.042;19.224;2022-12-10T00:37:48;97680.25;;;0.76;88.07
75247;BME280;63844;50.042;19.224;2022-12-10T00:40:15;97682.52;;;0.77;88.26
75247;BME280;63844;50.042;19.224;2022-12-10T00:42:41;97686.23;;;0.79;88.23
75247;BME280;63844;50.042;19.224;2022-12-10T00:45:08;97686.81;;;0.81;88.20
75247;BME280;63844;50.042;19.224;2022-12-10T00:47:35;97682.66;;;0.84;87.77
75247;BME280;63844;50.042;19.224;2022-12-10T00:50:01;97687.63;;;0.82;88.18
75247;BME280;63844;50.042;19.224;2022-12-10T00:52:29;97696.11;;;0.76;88.84
75247;BME280;63844;50.042;19.224;2022-12-10T00:54:55;97695.84;;;0.71;89.14
75247;BME280;63844;50.042;19.224;2022-12-10T00:57:25;97699.70;;;0.70;88.64
75247;BME280;63844;50.042;19.224;2022-12-10T00:59:51;97709.08;;;0.71;88.90
75247;BME280;63844;50.042;19.224;2022-12-10T01:02:18;97706.80;;;0.71;88.89
75247;BME280;63844;50.042;19.224;2022-12-10T01:04:44;97709.74;;;0.71;88.73
75247;BME280;63844;50.042;19.224;2022-12-10T01:07:11;97704.70;;;0.72;88.70
75247;BME280;63844;50.042;19.224;2022-12-10T01:09:37;97706.78;;;0.72;88.72
75247;BME280;63844;50.042;19.224;2022-12-10T01:12:04;97706.63;;;0.67;88.84
75247;BME280;63844;50.042;19.224;2022-12-10T01:14:32;97708.29;;;0.69;88.84
75247;BME280;63844;50.042;19.224;2022-12-10T01:17:01;97711.52;;;0.75;88.57
75247;BME280;63844;50.042;19.224;2022-12-10T01:19:32;97707.99;;;0.75;88.56
75247;BME280;63844;50.042;19.224;2022-12-10T01:21:59;97711.29;;;0.76;88.39
75247;BME280;63844;50.042;19.224;2022-12-10T01:24:27;97713.80;;;0.74;88.70
75247;BME280;63844;50.042;19.224;2022-12-10T01:26:54;97710.95;;;0.72;88.80
75247;BME280;63844;50.042;19.224;2022-12-10T01:29:24;97714.93;;;0.69;89.28
75247;BME280;63844;50.042;19.224;2022-12-10T01:31:52;97719.02;;;0.71;88.32
75247;BME280;63844;50.042;19.224;2022-12-10T01:34:19;97720.91;;;0.71;88.52
75247;BME280;63844;50.042;19.224;2022-12-10T01:36:50;97727.70;;;0.75;88.31
75247;BME280;63844;50.042;19.224;2022-12-10T01:39:18;97733.00;;;0.73;88.46
75247;BME280;63844;50.042;19.224;2022-12-10T01:41:48;97735.08;;;0.70;88.78
75247;BME280;63844;50.042;19.224;2022-12-10T01:46:46;97734.91;;;0.73;88.86
75247;BME280;63844;50.042;19.224;2022-12-10T01:49:27;97735.34;;;0.75;88.86
75247;BME280;63844;50.042;19.224;2022-12-10T01:51:57;97733.04;;;0.76;88.83
75247;BME280;63844;50.042;19.224;2022-12-10T01:54:31;97732.10;;;0.77;88.49
75247;BME280;63844;50.042;19.224;2022-12-10T01:57:06;97732.58;;;0.78;88.28
75247;BME280;63844;50.042;19.224;2022-12-10T01:59:35;97730.54;;;0.85;88.27
75247;BME280;63844;50.042;19.224;2022-12-10T02:02:31;97724.55;;;0.90;88.00
75247;BME280;63844;50.042;19.224;2022-12-10T02:07:52;97727.44;;;0.87;88.33
75247;BME280;63844;50.042;19.224;2022-12-10T02:12:59;97724.48;;;0.91;88.25
75247;BME280;63844;50.042;19.224;2022-12-10T02:15:31;97731.09;;;0.92;88.21
75247;BME280;63844;50.042;19.224;2022-12-10T02:18:20;97732.21;;;0.90;88.03
75247;BME280;63844;50.042;19.224;2022-12-10T02:20:54;97728.64;;;0.88;88.13
75247;BME280;63844;50.042;19.224;2022-12-10T02:23:28;97728.23;;;0.89;87.76
75247;BME280;63844;50.042;19.224;2022-12-10T02:31:32;97745.38;;;0.80;88.63
75247;BME280;63844;50.042;19.224;2022-12-10T02:34:01;97746.96;;;0.80;88.55
75247;BME280;63844;50.042;19.224;2022-12-10T02:36:35;97745.41;;;0.80;88.48
75247;BME280;63844;50.042;19.224;2022-12-10T02:39:07;97752.30;;;0.77;88.81
75247;BME280;63844;50.042;19.224;2022-12-10T02:41:38;97757.08;;;0.80;88.90
75247;BME280;63844;50.042;19.224;2022-12-10T02:44:09;97761.36;;;0.81;88.65
75247;BME280;63844;50.042;19.224;2022-12-10T02:46:39;97768.98;;;0.78;88.84
75247;BME280;63844;50.042;19.224;2022-12-10T02:49:08;97772.90;;;0.80;88.68
75247;BME280;63844;50.042;19.224;2022-12-10T02:51:35;97772.59;;;0.83;88.81
75247;BME280;63844;50.042;19.224;2022-12-10T02:54:06;97760.43;;;0.86;88.42
75247;BME280;63844;50.042;19.224;2022-12-10T02:56:42;97750.95;;;0.88;88.18
75247;BME280;63844;50.042;19.224;2022-12-10T02:59:21;97744.56;;;0.86;88.31
75247;BME280;63844;50.042;19.224;2022-12-10T03:04:52;97746.75;;;0.88;88.21
75247;BME280;63844;50.042;19.224;2022-12-10T03:07:27;97744.96;;;0.82;88.60
75247;BME280;63844;50.042;19.224;2022-12-10T03:12:48;97752.27;;;0.82;88.20
75247;BME280;63844;50.042;19.224;2022-12-10T03:15:18;97762.61;;;0.80;88.53
75247;BME280;63844;50.042;19.224;2022-12-10T03:17:46;97761.74;;;0.81;88.67
75247;BME280;63844;50.042;19.224;2022-12-10T03:20:14;97760.50;;;0.81;88.54
75247;BME280;63844;50.042;19.224;2022-12-10T03:22:44;97767.60;;;0.82;88.81
75247;BME280;63844;50.042;19.224;2022-12-10T03:25:17;97769.73;;;0.85;88.51
75247;BME280;63844;50.042;19.224;2022-12-10T03:27:48;97774.23;;;0.85;88.70
75247;BME280;63844;50.042;19.224;2022-12-10T03:30:16;97774.58;;;0.89;88.54
75247;BME280;63844;50.042;19.224;2022-12-10T03:32:43;97776.76;;;0.90;88.51
75247;BME280;63844;50.042;19.224;2022-12-10T03:35:11;97778.17;;;0.90;88.13
75247;BME280;63844;50.042;19.224;2022-12-10T03:37:39;97778.77;;;0.88;88.28
75247;BME280;63844;50.042;19.224;2022-12-10T03:40:06;97783.59;;;0.86;88.24
75247;BME280;63844;50.042;19.224;2022-12-10T03:42:38;97789.38;;;0.89;88.30
75247;BME280;63844;50.042;19.224;2022-12-10T03:45:05;97792.14;;;0.89;88.17
75247;BME280;63844;50.042;19.224;2022-12-10T03:47:31;97794.65;;;0.92;88.20
75247;BME280;63844;50.042;19.224;2022-12-10T03:49:58;97790.64;;;0.92;88.51
75247;BME280;63844;50.042;19.224;2022-12-10T03:52:24;97786.49;;;0.87;88.55
75247;BME280;63844;50.042;19.224;2022-12-10T03:54:50;97780.37;;;0.84;88.58
75247;BME280;63844;50.042;19.224;2022-12-10T03:57:17;97786.77;;;0.81;88.78
75247;BME280;63844;50.042;19.224;2022-12-10T03:59:43;97794.40;;;0.75;88.76
75247;BME280;63844;50.042;19.224;2022-12-10T04:02:10;97800.23;;;0.69;89.05
75247;BME280;63844;50.042;19.224;2022-12-10T04:04:36;97807.40;;;0.64;88.91
75247;BME280;63844;50.042;19.224;2022-12-10T04:07:03;97811.70;;;0.61;89.08
75247;BME280;63844;50.042;19.224;2022-12-10T04:09:29;97811.86;;;0.62;89.08
75247;BME280;63844;50.042;19.224;2022-12-10T04:11:57;97820.81;;;0.60;89.13
75247;BME280;63844;50.042;19.224;2022-12-10T04:14:24;97819.52;;;0.58;89.20
75247;BME280;63844;50.042;19.224;2022-12-10T04:17:09;97816.56;;;0.50;89.89
75247;BME280;63844;50.042;19.224;2022-12-10T04:19:36;97817.11;;;0.53;88.43
75247;BME280;63844;50.042;19.224;2022-12-10T04:22:03;97816.84;;;0.52;89.33
75247;BME280;63844;50.042;19.224;2022-12-10T04:24:48;97807.70;;;0.46;89.94
75247;BME280;63844;50.042;19.224;2022-12-10T04:27:38;97810.70;;;0.49;88.75
75247;BME280;63844;50.042;19.224;2022-12-10T04:30:09;97817.77;;;0.50;88.76
75247;BME280;63844;50.042;19.224;2022-12-10T04:32:35;97825.51;;;0.53;88.58
75247;BME280;63844;50.042;19.224;2022-12-10T04:35:02;97835.98;;;0.55;89.09
75247;BME280;63844;50.042;19.224;2022-12-10T04:37:29;97846.20;;;0.57;89.41
75247;BME280;63844;50.042;19.224;2022-12-10T04:39:56;97847.74;;;0.57;89.10
75247;BME280;63844;50.042;19.224;2022-12-10T04:42:23;97838.84;;;0.58;89.08
75247;BME280;63844;50.042;19.224;2022-12-10T04:44:49;97833.54;;;0.56;89.42
75247;BME280;63844;50.042;19.224;2022-12-10T04:47:15;97833.13;;;0.57;89.26
75247;BME280;63844;50.042;19.224;2022-12-10T04:49:42;97829.30;;;0.57;89.15
75247;BME280;63844;50.042;19.224;2022-12-10T04:52:11;97828.88;;;0.55;89.19
75247;BME280;63844;50.042;19.224;2022-12-10T04:54:38;97832.46;;;0.53;89.48
75247;BME280;63844;50.042;19.224;2022-12-10T04:57:05;97841.85;;;0.57;89.58
75247;BME280;63844;50.042;19.224;2022-12-10T04:59:32;97849.90;;;0.60;89.24
75247;BME280;63844;50.042;19.224;2022-12-10T05:01:58;97854.96;;;0.60;89.60
75247;BME280;63844;50.042;19.224;2022-12-10T05:04:25;97864.89;;;0.63;89.44
75247;BME280;63844;50.042;19.224;2022-12-10T05:06:51;97867.67;;;0.63;89.51
75247;BME280;63844;50.042;19.224;2022-12-10T05:09:18;97868.59;;;0.66;89.25
75247;BME280;63844;50.042;19.224;2022-12-10T05:11:44;97874.27;;;0.64;89.31
75247;BME280;63844;50.042;19.224;2022-12-10T05:14:13;97880.84;;;0.65;89.17
75247;BME280;63844;50.042;19.224;2022-12-10T05:16:40;97883.17;;;0.68;89.48
75247;BME280;63844;50.042;19.224;2022-12-10T05:19:06;97889.05;;;0.68;89.29
75247;BME280;63844;50.042;19.224;2022-12-10T05:21:32;97886.27;;;0.69;89.12
75247;BME280;63844;50.042;19.224;2022-12-10T05:24:18;97891.95;;;0.70;89.03
75247;BME280;63844;50.042;19.224;2022-12-10T05:26:44;97891.30;;;0.69;89.16
75247;BME280;63844;50.042;19.224;2022-12-10T05:29:12;97885.71;;;0.70;89.05
75247;BME280;63844;50.042;19.224;2022-12-10T05:31:39;97882.88;;;0.66;89.36
75247;BME280;63844;50.042;19.224;2022-12-10T05:34:05;97875.59;;;0.61;89.02
75247;BME280;63844;50.042;19.224;2022-12-10T05:36:34;97874.39;;;0.57;89.42
75247;BME280;63844;50.042;19.224;2022-12-10T05:39:00;97871.28;;;0.57;89.50
75247;BME280;63844;50.042;19.224;2022-12-10T05:41:29;97862.89;;;0.57;89.87
75247;BME280;63844;50.042;19.224;2022-12-10T05:43:57;97855.21;;;0.54;89.71
75247;BME280;63844;50.042;19.224;2022-12-10T05:46:29;97851.11;;;0.48;90.24
75247;BME280;63844;50.042;19.224;2022-12-10T05:48:56;97849.04;;;0.52;89.76
75247;BME280;63844;50.042;19.224;2022-12-10T05:51:25;97846.80;;;0.55;89.66
75247;BME280;63844;50.042;19.224;2022-12-10T05:53:53;97845.75;;;0.55;89.89
75247;BME280;63844;50.042;19.224;2022-12-10T05:56:22;97847.48;;;0.59;89.47
75247;BME280;63844;50.042;19.224;2022-12-10T05:58:54;97851.90;;;0.66;89.60
75247;BME280;63844;50.042;19.224;2022-12-10T06:01:23;97850.27;;;0.67;89.52
75247;BME280;63844;50.042;19.224;2022-12-10T06:03:50;97844.58;;;0.66;89.32
75247;BME280;63844;50.042;19.224;2022-12-10T06:06:23;97844.36;;;0.67;89.35
75247;BME280;63844;50.042;19.224;2022-12-10T06:08:50;97837.55;;;0.63;89.57
75247;BME280;63844;50.042;19.224;2022-12-10T06:11:17;97831.47;;;0.63;88.94
75247;BME280;63844;50.042;19.224;2022-12-10T06:13:44;97837.18;;;0.60;89.17
75247;BME280;63844;50.042;19.224;2022-12-10T06:16:11;97845.39;;;0.60;89.37
75247;BME280;63844;50.042;19.224;2022-12-10T06:18:38;97853.41;;;0.59;89.50
75247;BME280;63844;50.042;19.224;2022-12-10T06:21:06;97856.16;;;0.60;89.12
75247;BME280;63844;50.042;19.224;2022-12-10T06:23:34;97864.36;;;0.60;89.20
75247;BME280;63844;50.042;19.224;2022-12-10T06:26:15;97874.56;;;0.57;89.30
75247;BME280;63844;50.042;19.224;2022-12-10T06:28:44;97886.76;;;0.57;89.34
75247;BME280;63844;50.042;19.224;2022-12-10T06:31:11;97890.96;;;0.56;89.76
75247;BME280;63844;50.042;19.224;2022-12-10T06:33:38;97901.17;;;0.62;89.89
75247;BME280;63844;50.042;19.224;2022-12-10T06:36:06;97904.11;;;0.66;89.51
75247;BME280;63844;50.042;19.224;2022-12-10T06:38:34;97905.31;;;0.71;88.95
75247;BME280;63844;50.042;19.224;2022-12-10T06:41:06;97911.10;;;0.74;89.07
75247;BME280;63844;50.042;19.224;2022-12-10T06:43:33;97916.08;;;0.76;89.24
75247;BME280;63844;50.042;19.224;2022-12-10T06:46:07;97926.77;;;0.82;88.94
75247;BME280;63844;50.042;19.224;2022-12-10T06:48:34;97939.84;;;0.82;89.41
75247;BME280;63844;50.042;19.224;2022-12-10T06:51:01;97947.30;;;0.83;89.14
75247;BME280;63844;50.042;19.224;2022-12-10T06:53:27;97955.84;;;0.82;88.99
75247;BME280;63844;50.042;19.224;2022-12-10T06:55:54;97956.94;;;0.81;88.88
75247;BME280;63844;50.042;19.224;2022-12-10T06:58:20;97964.17;;;0.79;89.09
75247;BME280;63844;50.042;19.224;2022-12-10T07:00:46;97968.40;;;0.74;89.81
75247;BME280;63844;50.042;19.224;2022-12-10T07:03:13;97962.96;;;0.75;89.32
75247;BME280;63844;50.042;19.224;2022-12-10T07:05:39;97952.77;;;0.77;89.24
75247;BME280;63844;50.042;19.224;2022-12-10T07:08:05;97948.43;;;0.81;89.37
75247;BME280;63844;50.042;19.224;2022-12-10T07:10:32;97941.58;;;0.90;89.06
75247;BME280;63844;50.042;19.224;2022-12-10T07:12:58;97936.23;;;0.88;88.95
75247;BME280;63844;50.042;19.224;2022-12-10T07:15:26;97939.88;;;0.89;89.02
75247;BME280;63844;50.042;19.224;2022-12-10T07:17:54;97940.95;;;0.88;88.79
75247;BME280;63844;50.042;19.224;2022-12-10T07:20:20;97941.84;;;0.88;88.87
75247;BME280;63844;50.042;19.224;2022-12-10T07:22:47;97941.92;;;0.90;88.68
75247;BME280;63844;50.042;19.224;2022-12-10T07:25:13;97942.41;;;0.87;88.56
75247;BME280;63844;50.042;19.224;2022-12-10T07:27:40;97942.05;;;0.87;88.73
75247;BME280;63844;50.042;19.224;2022-12-10T07:30:07;97942.92;;;0.83;88.83
75247;BME280;63844;50.042;19.224;2022-12-10T07:32:33;97947.02;;;0.85;88.45
75247;BME280;63844;50.042;19.224;2022-12-10T07:35:00;97947.08;;;0.83;88.96
75247;BME280;63844;50.042;19.224;2022-12-10T07:37:26;97941.88;;;0.83;88.90
75247;BME280;63844;50.042;19.224;2022-12-10T07:39:52;97943.85;;;0.86;88.86
75247;BME280;63844;50.042;19.224;2022-12-10T07:42:19;97952.13;;;0.88;88.66
75247;BME280;63844;50.042;19.224;2022-12-10T07:44:45;97953.10;;;0.89;88.73
75247;BME280;63844;50.042;19.224;2022-12-10T07:47:13;97957.26;;;0.90;88.64
75247;BME280;63844;50.042;19.224;2022-12-10T07:49:39;97953.17;;;0.88;88.80
75247;BME280;63844;50.042;19.224;2022-12-10T07:52:07;97956.82;;;0.88;88.71
75247;BME280;63844;50.042;19.224;2022-12-10T07:54:34;97961.33;;;0.88;88.64
75247;BME280;63844;50.042;19.224;2022-12-10T07:57:01;97959.92;;;0.88;88.64
75247;BME280;63844;50.042;19.224;2022-12-10T07:59:28;97962.66;;;0.86;88.76
75247;BME280;63844;50.042;19.224;2022-12-10T08:01:54;97954.38;;;0.84;89.04
75247;BME280;63844;50.042;19.224;2022-12-10T08:04:20;97953.02;;;0.83;88.72
75247;BME280;63844;50.042;19.224;2022-12-10T08:06:47;97956.10;;;0.84;88.55
75247;BME280;63844;50.042;19.224;2022-12-10T08:09:14;97953.64;;;0.85;88.87
75247;BME280;63844;50.042;19.224;2022-12-10T08:11:40;97953.57;;;0.87;88.80
75247;BME280;63844;50.042;19.224;2022-12-10T08:14:07;97954.54;;;0.88;88.71
75247;BME280;63844;50.042;19.224;2022-12-10T08:16:33;97955.36;;;0.86;88.86
75247;BME280;63844;50.042;19.224;2022-12-10T08:19:00;97955.19;;;0.93;88.74
75247;BME280;63844;50.042;19.224;2022-12-10T08:21:29;97959.92;;;0.97;88.72
75247;BME280;63844;50.042;19.224;2022-12-10T08:23:56;97963.97;;;1.03;88.90
75247;BME280;63844;50.042;19.224;2022-12-10T08:26:26;97968.01;;;1.11;88.50
75247;BME280;63844;50.042;19.224;2022-12-10T08:28:54;97966.08;;;1.19;88.82
75247;BME280;63844;50.042;19.224;2022-12-10T08:31:22;97967.75;;;1.24;88.68
75247;BME280;63844;50.042;19.224;2022-12-10T08:33:50;97968.42;;;1.29;88.72
75247;BME280;63844;50.042;19.224;2022-12-10T08:36:17;97969.01;;;1.31;88.55
75247;BME280;63844;50.042;19.224;2022-12-10T08:38:45;97969.54;;;1.35;88.45
75247;BME280;63844;50.042;19.224;2022-12-10T08:41:18;97968.11;;;1.32;88.15
75247;BME280;63844;50.042;19.224;2022-12-10T08:43:45;97958.75;;;1.31;88.23
75247;BME280;63844;50.042;19.224;2022-12-10T08:46:12;97958.62;;;1.33;88.07
75247;BME280;63844;50.042;19.224;2022-12-10T08:48:40;97962.05;;;1.38;87.96
75247;BME280;63844;50.042;19.224;2022-12-10T08:51:07;97968.01;;;1.42;88.07
75247;BME280;63844;50.042;19.224;2022-12-10T08:53:34;97973.55;;;1.42;87.93
75247;BME280;63844;50.042;19.224;2022-12-10T08:56:01;97977.41;;;1.46;88.43
75247;BME280;63844;50.042;19.224;2022-12-10T08:58:28;97971.70;;;1.49;88.70
75247;BME280;63844;50.042;19.224;2022-12-10T09:00:54;97974.13;;;1.45;88.50
75247;BME280;63844;50.042;19.224;2022-12-10T09:03:21;97971.27;;;1.50;88.79
75247;BME280;63844;50.042;19.224;2022-12-10T09:05:47;97966.55;;;1.54;88.55
75247;BME280;63844;50.042;19.224;2022-12-10T09:08:14;97963.07;;;1.54;88.01
75247;BME280;63844;50.042;19.224;2022-12-10T09:10:41;97964.02;;;1.52;87.75
75247;BME280;63844;50.042;19.224;2022-12-10T09:13:09;97961.34;;;1.54;87.89
75247;BME280;63844;50.042;19.224;2022-12-10T09:15:35;97956.20;;;1.52;87.53
75247;BME280;63844;50.042;19.224;2022-12-10T09:18:01;97955.11;;;1.49;87.41
75247;BME280;63844;50.042;19.224;2022-12-10T09:20:28;97955.17;;;1.51;87.51
75247;BME280;63844;50.042;19.224;2022-12-10T09:22:54;97956.35;;;1.52;87.46
75247;BME280;63844;50.042;19.224;2022-12-10T09:25:21;97955.58;;;1.54;87.71
75247;BME280;63844;50.042;19.224;2022-12-10T09:27:48;97965.75;;;1.57;87.33
75247;BME280;63844;50.042;19.224;2022-12-10T09:30:15;97963.70;;;1.55;86.94
75247;BME280;63844;50.042;19.224;2022-12-10T09:32:42;97957.95;;;1.56;87.39
75247;BME280;63844;50.042;19.224;2022-12-10T09:35:09;97953.59;;;1.59;87.59
75247;BME280;63844;50.042;19.224;2022-12-10T09:37:35;97948.08;;;1.65;87.61
75247;BME280;63844;50.042;19.224;2022-12-10T09:40:02;97943.08;;;1.68;87.50
75247;BME280;63844;50.042;19.224;2022-12-10T09:42:53;97942.86;;;1.73;87.50
75247;BME280;63844;50.042;19.224;2022-12-10T09:46:07;97938.20;;;1.68;87.33
75247;BME280;63844;50.042;19.224;2022-12-10T09:51:30;97935.66;;;1.74;87.34
75247;BME280;63844;50.042;19.224;2022-12-10T09:53:59;97934.04;;;1.67;86.68
75247;BME280;63844;50.042;19.224;2022-12-10T09:56:33;97936.85;;;1.67;87.06
75247;BME280;63844;50.042;19.224;2022-12-10T09:59:11;97938.64;;;1.70;86.87
75247;BME280;63844;50.042;19.224;2022-12-10T10:01:40;97939.15;;;1.66;86.66
75247;BME280;63844;50.042;19.224;2022-12-10T10:04:06;97938.80;;;1.70;86.99
75247;BME280;63844;50.042;19.224;2022-12-10T10:06:33;97941.57;;;1.70;86.80
75247;BME280;63844;50.042;19.224;2022-12-10T10:09:01;97939.98;;;1.71;87.17
75247;BME280;63844;50.042;19.224;2022-12-10T10:11:34;97947.52;;;1.74;87.20
75247;BME280;63844;50.042;19.224;2022-12-10T10:14:08;97949.49;;;1.80;87.25
75247;BME280;63844;50.042;19.224;2022-12-10T10:16:44;97949.84;;;1.84;86.91
75247;BME280;63844;50.042;19.224;2022-12-10T10:19:16;97954.61;;;1.86;86.55
75247;BME280;63844;50.042;19.224;2022-12-10T10:21:48;97954.20;;;1.87;86.93
75247;BME280;63844;50.042;19.224;2022-12-10T10:24:18;97948.91;;;1.85;87.01
75247;BME280;63844;50.042;19.224;2022-12-10T10:26:46;97949.40;;;1.85;87.01
75247;BME280;63844;50.042;19.224;2022-12-10T10:29:17;97947.66;;;1.82;86.59
75247;BME280;63844;50.042;19.224;2022-12-10T10:31:45;97947.89;;;1.80;86.87
75247;BME280;63844;50.042;19.224;2022-12-10T10:34:22;97943.56;;;1.76;86.74
75247;BME280;63844;50.042;19.224;2022-12-10T10:37:00;97929.97;;;1.76;86.91
75247;BME280;63844;50.042;19.224;2022-12-10T10:39:31;97924.92;;;1.79;86.79
75247;BME280;63844;50.042;19.224;2022-12-10T10:41:59;97929.08;;;1.80;86.69
75247;BME280;63844;50.042;19.224;2022-12-10T10:44:28;97927.09;;;1.81;86.41
75247;BME280;63844;50.042;19.224;2022-12-10T10:46:59;97930.43;;;1.73;86.32
75247;BME280;63844;50.042;19.224;2022-12-10T10:49:28;97932.68;;;1.70;86.49
75247;BME280;63844;50.042;19.224;2022-12-10T10:52:01;97937.45;;;1.65;86.94
75247;BME280;63844;50.042;19.224;2022-12-10T10:57:02;97944.90;;;1.74;86.61
75247;BME280;63844;50.042;19.224;2022-12-10T10:59:33;97946.61;;;1.78;86.63
75247;BME280;63844;50.042;19.224;2022-12-10T11:02:22;97950.98;;;1.78;86.75
75247;BME280;63844;50.042;19.224;2022-12-10T11:04:52;97949.77;;;1.81;86.85
75247;BME280;63844;50.042;19.224;2022-12-10T11:07:36;97946.23;;;1.82;86.50
75247;BME280;63844;50.042;19.224;2022-12-10T11:10:16;97939.22;;;1.79;86.77
75247;BME280;63844;50.042;19.224;2022-12-10T11:12:45;97934.15;;;1.84;86.73
75247;BME280;63844;50.042;19.224;2022-12-10T11:17:51;97936.62;;;1.79;86.60
75247;BME280;63844;50.042;19.224;2022-12-10T11:20:28;97930.34;;;1.75;87.04
75247;BME280;63844;50.042;19.224;2022-12-10T11:23:00;97933.66;;;1.75;86.67
75247;BME280;63844;50.042;19.224;2022-12-10T11:25:52;97933.21;;;1.74;86.67
75247;BME280;63844;50.042;19.224;2022-12-10T11:34:35;97931.46;;;1.74;86.61
75247;BME280;63844;50.042;19.224;2022-12-10T11:50:47;97933.46;;;1.76;86.73
75247;BME280;63844;50.042;19.224;2022-12-10T11:56:34;97942.50;;;1.80;86.61
75247;BME280;63844;50.042;19.224;2022-12-10T12:02:15;97950.41;;;1.83;86.61
75247;BME280;63844;50.042;19.224;2022-12-10T12:07:49;97935.48;;;1.81;86.61
75247;BME280;63844;50.042;19.224;2022-12-10T12:10:45;97933.59;;;1.77;86.92
75247;BME280;63844;50.042;19.224;2022-12-10T12:13:25;97929.41;;;1.80;86.67
75247;BME280;63844;50.042;19.224;2022-12-10T12:15:57;97929.04;;;1.80;86.81
75247;BME280;63844;50.042;19.224;2022-12-10T12:21:13;97925.61;;;1.79;86.90
75247;BME280;63844;50.042;19.224;2022-12-10T12:24:04;97920.39;;;1.83;86.25
75247;BME280;63844;50.042;19.224;2022-12-10T12:26:42;97918.66;;;1.75;86.69
75247;BME280;63844;50.042;19.224;2022-12-10T12:29:28;97922.77;;;1.73;86.70
75247;BME280;63844;50.042;19.224;2022-12-10T12:32:19;97928.48;;;1.71;86.57
75247;BME280;63844;50.042;19.224;2022-12-10T12:37:23;97920.83;;;1.66;86.61
75247;BME280;63844;50.042;19.224;2022-12-10T12:40:03;97923.41;;;1.64;86.74
75247;BME280;63844;50.042;19.224;2022-12-10T12:42:55;97923.09;;;1.63;86.66
75247;BME280;63844;50.042;19.224;2022-12-10T12:45:40;97927.75;;;1.64;86.86
75247;BME280;63844;50.042;19.224;2022-12-10T12:48:34;97924.92;;;1.65;86.85
75247;BME280;63844;50.042;19.224;2022-12-10T12:51:28;97924.15;;;1.63;86.84
75247;BME280;63844;50.042;19.224;2022-12-10T12:53:56;97926.65;;;1.57;86.62
75247;BME280;63844;50.042;19.224;2022-12-10T12:56:41;97922.87;;;1.60;87.29
75247;BME280;63844;50.042;19.224;2022-12-10T12:59:41;97923.84;;;1.62;87.21
75247;BME280;63844;50.042;19.224;2022-12-10T13:02:44;97925.46;;;1.57;87.02
75247;BME280;63844;50.042;19.224;2022-12-10T13:05:36;97921.10;;;1.49;87.13
75247;BME280;63844;50.042;19.224;2022-12-10T13:10:57;97933.28;;;1.43;87.30
75247;BME280;63844;50.042;19.224;2022-12-10T13:13:35;97936.60;;;1.38;87.29
75247;BME280;63844;50.042;19.224;2022-12-10T13:24:43;97952.17;;;1.33;87.15
75247;BME280;63844;50.042;19.224;2022-12-10T13:43:37;97964.35;;;1.34;87.51
75247;BME280;63844;50.042;19.224;2022-12-10T13:49:03;97969.95;;;1.38;87.52
75247;BME280;63844;50.042;19.224;2022-12-10T13:51:43;97974.77;;;1.39;87.35
75247;BME280;63844;50.042;19.224;2022-12-10T13:57:02;97974.33;;;1.33;87.36
75247;BME280;63844;50.042;19.224;2022-12-10T14:03:08;97970.47;;;1.34;87.33
75247;BME280;63844;50.042;19.224;2022-12-10T14:08:54;97973.21;;;1.34;87.58
75247;BME280;63844;50.042;19.224;2022-12-10T14:11:27;97972.61;;;1.32;87.53
75247;BME280;63844;50.042;19.224;2022-12-10T14:13:57;97975.01;;;1.33;87.66
75247;BME280;63844;50.042;19.224;2022-12-10T14:16:28;97976.63;;;1.32;87.87
75247;BME280;63844;50.042;19.224;2022-12-10T14:19:03;97976.35;;;1.35;87.67
75247;BME280;63844;50.042;19.224;2022-12-10T14:21:37;97979.17;;;1.34;87.62
75247;BME280;63844;50.042;19.224;2022-12-10T14:24:05;97977.34;;;1.32;87.77
75247;BME280;63844;50.042;19.224;2022-12-10T14:26:35;97974.08;;;1.31;87.84
75247;BME280;63844;50.042;19.224;2022-12-10T14:31:37;97965.05;;;1.30;87.24
75247;BME280;63844;50.042;19.224;2022-12-10T14:34:07;97959.19;;;1.25;87.85
75247;BME280;63844;50.042;19.224;2022-12-10T14:36:39;97959.17;;;1.25;87.82
75247;BME280;63844;50.042;19.224;2022-12-10T14:39:19;97961.34;;;1.24;88.27
75247;BME280;63844;50.042;19.224;2022-12-10T14:41:48;97961.08;;;1.25;88.11
75247;BME280;63844;50.042;19.224;2022-12-10T14:44:18;97966.45;;;1.26;87.92
75247;BME280;63844;50.042;19.224;2022-12-10T14:46:49;97973.88;;;1.24;88.09
75247;BME280;63844;50.042;19.224;2022-12-10T14:49:20;97978.46;;;1.26;87.92
75247;BME280;63844;50.042;19.224;2022-12-10T14:51:48;97982.54;;;1.25;87.76
75247;BME280;63844;50.042;19.224;2022-12-10T14:54:34;97984.13;;;1.24;87.54
75247;BME280;63844;50.042;19.224;2022-12-10T14:57:05;97988.48;;;1.25;87.70
75247;BME280;63844;50.042;19.224;2022-12-10T14:59:41;97984.45;;;1.21;87.81
75247;BME280;63844;50.042;19.224;2022-12-10T15:02:39;97980.35;;;1.16;87.76